Time;durP1;ratioP1;P1;durP2;ratioP2;P2;SDS_P1;SDS_P2;PMS_P1;PMS_P2;Temp;Humidity;BMP_temperature;BMP_pressure;BME280_temperature;BME280_humidity;BME280_pressure;Samples;Min_cycle;Max_cycle;Signal;HPM_P1;HPM_P2
2024/01/16 00:03:15;;;;;;;10.10;5.00;;;;;;;1.77;68.96;97324.27;231884;205;137482;-58
2024/01/16 00:08:18;;;;;;;8.80;4.70;;;;;;;1.79;68.62;97321.00;231798;198;153590;-59
2024/01/16 00:13:21;;;;;;;6.50;4.30;;;;;;;1.71;68.52;97332.98;231688;203;137771;-59
2024/01/16 00:18:24;;;;;;;8.10;4.60;;;;;;;1.63;68.77;97333.73;231868;198;137602;-59
2024/01/16 00:23:28;;;;;;;8.70;4.60;;;;;;;1.59;69.06;97337.65;231867;198;153845;-59
2024/01/16 00:28:32;;;;;;;9.10;4.60;;;;;;;1.58;69.44;97342.74;231893;198;138217;-59
2024/01/16 00:33:35;;;;;;;7.20;4.50;;;;;;;1.58;69.83;97352.90;231672;198;137570;-58
2024/01/16 00:38:38;;;;;;;8.80;5.50;;;;;;;1.57;69.93;97357.85;231361;199;152976;-58
2024/01/16 00:43:45;;;;;;;8.80;5.10;;;;;;;1.58;70.10;97366.54;230814;202;138788;-57
2024/01/16 00:48:48;;;;;;;6.20;4.30;;;;;;;1.56;70.41;97372.23;231782;198;137964;-57
2024/01/16 00:53:52;;;;;;;7.90;5.00;;;;;;;1.61;70.25;97372.66;231803;205;154819;-57
2024/01/16 00:58:55;;;;;;;8.10;5.20;;;;;;;1.62;70.21;97380.16;231850;198;138402;-56
2024/01/16 01:03:58;;;;;;;7.60;4.60;;;;;;;1.64;70.29;97386.69;231841;198;137344;-57
2024/01/16 01:09:02;;;;;;;6.00;4.70;;;;;;;1.62;70.17;97396.06;230979;198;153799;-57
2024/01/16 01:14:06;;;;;;;8.70;5.40;;;;;;;1.61;70.46;97402.89;231724;202;138457;-57
2024/01/16 01:19:09;;;;;;;9.50;5.60;;;;;;;1.61;70.50;97409.23;231742;198;137569;-56
2024/01/16 01:24:12;;;;;;;9.90;5.60;;;;;;;1.64;70.43;97407.64;231790;198;152964;-58
2024/01/16 01:29:17;;;;;;;10.70;5.10;;;;;;;1.66;70.29;97417.83;231867;198;137688;-56
2024/01/16 01:34:20;;;;;;;15.30;5.50;;;;;;;1.64;70.23;97411.84;231902;198;138395;-56
2024/01/16 01:39:24;;;;;;;7.40;5.10;;;;;;;1.55;70.54;97413.36;231733;199;153368;-56
2024/01/16 01:44:27;;;;;;;6.40;4.90;;;;;;;1.51;70.70;97415.36;231717;206;137828;-57
2024/01/16 01:49:31;;;;;;;7.60;4.80;;;;;;;1.47;70.86;97421.45;231786;202;137439;-58
2024/01/16 01:54:36;;;;;;;7.60;4.80;;;;;;;1.49;71.07;97418.07;231736;199;153034;-58
2024/01/16 01:59:40;;;;;;;;;;;;;;;1.58;70.78;97428.23;231811;198;138407;-57
2024/01/16 02:04:44;;;;;;;9.50;4.90;;;;;;;1.65;70.84;97427.89;232171;205;137283;-57
2024/01/16 02:09:48;;;;;;;7.00;4.90;;;;;;;1.74;70.60;97420.55;231754;198;153363;-57
2024/01/16 02:14:51;;;;;;;7.70;5.20;;;;;;;1.75;70.36;97428.44;231723;198;137713;-57
2024/01/16 02:19:54;;;;;;;8.00;5.30;;;;;;;1.73;70.16;97429.90;231768;206;137608;-57
2024/01/16 02:24:57;;;;;;;8.60;4.30;;;;;;;1.74;69.89;97429.48;231754;203;153233;-57
2024/01/16 02:30:01;;;;;;;8.00;5.50;;;;;;;1.72;69.55;97435.20;231665;203;138178;-57
2024/01/16 02:35:05;;;;;;;6.10;4.90;;;;;;;1.72;69.39;97442.92;231846;203;137294;-58
2024/01/16 02:40:09;;;;;;;7.00;5.20;;;;;;;1.73;69.18;97443.05;231723;203;153690;-58
2024/01/16 02:45:13;;;;;;;8.30;5.50;;;;;;;1.68;68.74;97442.24;231688;203;141157;-59
2024/01/16 02:50:16;;;;;;;10.10;5.40;;;;;;;1.65;68.56;97453.92;231691;199;138096;-59
2024/01/16 02:55:19;;;;;;;10.00;5.00;;;;;;;1.66;68.43;97457.72;231771;199;154476;-57
2024/01/16 03:00:22;;;;;;;8.60;5.10;;;;;;;1.67;68.13;97456.27;231719;206;139075;-58
2024/01/16 03:05:26;;;;;;;8.10;5.10;;;;;;;1.66;67.91;97452.46;231717;203;137922;-58
2024/01/16 03:10:29;;;;;;;9.00;5.10;;;;;;;1.72;67.95;97456.70;231867;206;153815;-58
2024/01/16 03:15:32;;;;;;;8.40;5.00;;;;;;;1.87;67.59;97459.57;231697;199;138574;-56
2024/01/16 03:20:35;;;;;;;8.50;5.30;;;;;;;1.92;66.97;97459.83;231734;206;138105;-57
2024/01/16 03:25:38;;;;;;;9.50;5.00;;;;;;;1.99;66.67;97465.44;231742;206;153354;-55
2024/01/16 03:30:42;;;;;;;9.30;4.60;;;;;;;2.04;66.15;97465.69;231656;202;137556;-57
2024/01/16 03:35:45;;;;;;;8.20;4.80;;;;;;;2.08;65.61;97470.38;231739;202;137657;-57
2024/01/16 03:40:48;;;;;;;6.00;4.00;;;;;;;2.08;65.29;97472.63;231767;199;153324;-57
2024/01/16 03:45:51;;;;;;;7.80;4.70;;;;;;;2.08;64.94;97471.95;231687;198;138095;-57
2024/01/16 03:50:55;;;;;;;7.00;4.40;;;;;;;2.07;64.79;97470.06;231659;203;138307;-56
2024/01/16 03:55:58;;;;;;;5.30;3.70;;;;;;;2.01;64.88;97471.42;231686;198;153488;-57
2024/01/16 04:01:02;;;;;;;6.90;3.70;;;;;;;1.99;65.21;97471.75;231706;199;139483;-57
2024/01/16 04:06:16;;;;;;;6.60;4.10;;;;;;;1.98;65.87;97482.27;231687;206;137611;-57
2024/01/16 04:11:19;;;;;;;6.70;4.00;;;;;;;1.89;67.42;97484.13;231818;198;153146;-58
2024/01/16 04:16:23;;;;;;;6.10;4.10;;;;;;;1.71;69.49;97484.71;231802;205;137994;-58
2024/01/16 04:21:26;;;;;;;4.90;3.80;;;;;;;1.66;70.11;97488.45;231706;199;138029;-57
2024/01/16 04:26:29;;;;;;;6.10;4.50;;;;;;;1.75;70.40;97492.92;231726;199;154744;-57
2024/01/16 04:31:39;;;;;;;7.40;4.50;;;;;;;1.86;70.28;97494.43;231668;198;137994;-58
2024/01/16 04:36:42;;;;;;;5.80;4.40;;;;;;;1.93;70.20;97502.45;231820;198;137531;-58
2024/01/16 04:41:45;;;;;;;45.10;31.40;;;;;;;1.88;70.55;97501.84;231684;198;154038;-58
2024/01/16 04:46:48;;;;;;;7.10;5.40;;;;;;;2.01;71.59;97509.20;231747;199;137885;-58
2024/01/16 04:51:52;;;;;;;6.20;4.20;;;;;;;2.02;71.01;97511.41;231762;199;137423;-56
2024/01/16 04:56:55;;;;;;;8.60;4.70;;;;;;;1.92;70.72;97521.92;231709;199;153855;-58
2024/01/16 05:01:58;;;;;;;4.70;3.80;;;;;;;1.81;70.89;97530.70;231731;206;138051;-58
2024/01/16 05:07:01;;;;;;;7.70;4.10;;;;;;;1.81;70.77;97539.09;231656;198;139190;-56
2024/01/16 05:12:04;;;;;;;87.70;47.70;;;;;;;1.85;70.49;97538.22;231664;199;153379;-58
2024/01/16 05:17:08;;;;;;;9.20;6.20;;;;;;;1.95;70.36;97552.17;231712;198;142868;-57
2024/01/16 05:22:11;;;;;;;9.30;4.50;;;;;;;2.08;69.41;97569.56;231729;199;138903;-58
2024/01/16 05:27:14;;;;;;;6.50;4.60;;;;;;;2.02;69.59;97592.04;231789;199;153728;-58
2024/01/16 05:32:17;;;;;;;6.00;4.10;;;;;;;1.86;70.30;97601.80;231623;199;137545;-58
2024/01/16 05:37:21;;;;;;;9.40;4.90;;;;;;;1.81;70.43;97606.27;231639;202;138180;-58
2024/01/16 05:42:24;;;;;;;6.40;4.40;;;;;;;1.74;69.94;97616.42;231652;199;154217;-56
2024/01/16 05:47:27;;;;;;;8.00;4.40;;;;;;;1.69;69.93;97623.98;231673;199;137341;-57
2024/01/16 05:52:31;;;;;;;6.60;4.10;;;;;;;1.75;69.55;97630.49;231839;199;139002;-57
2024/01/16 05:57:34;;;;;;;7.10;4.40;;;;;;;1.88;68.97;97643.45;231749;199;153255;-57
2024/01/16 06:02:37;;;;;;;6.80;3.70;;;;;;;1.93;68.08;97651.47;231696;203;137818;-57
2024/01/16 06:07:40;;;;;;;95.30;65.70;;;;;;;1.96;68.07;97664.61;231705;198;138052;-57
2024/01/16 06:12:43;;;;;;;9.00;4.90;;;;;;;2.10;67.91;97672.29;231716;199;155180;-56
2024/01/16 06:17:47;;;;;;;7.20;4.00;;;;;;;2.07;67.15;97676.82;231645;197;137976;-56
2024/01/16 06:22:51;;;;;;;9.70;4.10;;;;;;;2.09;67.15;97683.70;231835;200;137537;-56
2024/01/16 06:27:54;;;;;;;5.50;4.00;;;;;;;2.12;67.01;97685.45;231726;205;153801;-56
2024/01/16 06:32:57;;;;;;;9.50;5.10;;;;;;;2.00;66.88;97700.61;231703;199;137226;-55
2024/01/16 06:38:01;;;;;;;9.70;5.00;;;;;;;1.88;67.49;97716.59;231720;199;137373;-54
2024/01/16 06:43:05;;;;;;;13.40;5.30;;;;;;;1.68;67.75;97726.98;231714;206;153302;-55
2024/01/16 06:48:08;;;;;;;7.00;4.10;;;;;;;1.48;68.07;97732.13;231680;198;137976;-54
2024/01/16 06:53:13;;;;;;;10.20;4.20;;;;;;;1.43;68.33;97734.98;231802;199;137869;-56
2024/01/16 06:58:18;;;;;;;8.60;4.80;;;;;;;1.47;68.49;97744.23;231703;198;153665;-55
2024/01/16 07:03:22;;;;;;;7.60;3.30;;;;;;;1.54;68.60;97753.35;231676;206;138995;-57
2024/01/16 07:08:25;;;;;;;8.70;3.50;;;;;;;1.58;68.10;97763.64;231859;198;158890;-58
2024/01/16 07:13:28;;;;;;;8.00;3.60;;;;;;;1.59;68.36;97770.23;231738;199;154203;-58
2024/01/16 07:18:33;;;;;;;7.40;3.80;;;;;;;1.60;68.69;97781.20;231707;203;138674;-57
2024/01/16 07:23:36;;;;;;;7.80;3.60;;;;;;;1.61;68.80;97783.94;231754;198;137442;-58
2024/01/16 07:28:40;;;;;;;6.50;3.60;;;;;;;1.59;69.17;97788.77;231842;203;152833;-57
2024/01/16 07:33:43;;;;;;;7.50;3.90;;;;;;;1.65;69.62;97790.05;231629;198;140140;-58
2024/01/16 07:38:46;;;;;;;5.60;3.60;;;;;;;1.68;69.99;97796.73;231648;206;137301;-57
2024/01/16 07:43:49;;;;;;;6.90;4.00;;;;;;;1.68;70.13;97810.54;231671;199;153259;-58
2024/01/16 07:48:52;;;;;;;9.90;4.20;;;;;;;1.72;70.31;97814.73;231707;199;137929;-58
2024/01/16 07:54:08;;;;;;;7.20;4.30;;;;;;;1.79;70.50;97818.27;231711;203;138325;-56
2024/01/16 07:59:11;;;;;;;;;;;;;;;1.90;70.34;97822.30;231732;199;153235;-58
2024/01/16 08:04:15;;;;;;;8.40;4.40;;;;;;;1.95;70.35;97832.89;231806;206;137065;-58
2024/01/16 08:09:19;;;;;;;7.20;4.40;;;;;;;1.95;70.31;97844.09;231734;199;141830;-59
2024/01/16 08:14:23;;;;;;;8.40;5.00;;;;;;;1.98;70.57;97846.05;231702;199;153842;-58
2024/01/16 08:19:27;;;;;;;7.10;5.10;;;;;;;2.01;70.63;97848.88;231696;203;155064;-58
2024/01/16 08:24:33;;;;;;;7.30;5.30;;;;;;;2.02;70.82;97852.18;231732;199;138089;-58
2024/01/16 08:29:36;;;;;;;7.70;5.40;;;;;;;2.05;70.77;97854.30;231208;203;153334;-57
2024/01/16 08:34:40;;;;;;;11.00;7.10;;;;;;;1.95;70.78;97865.95;231788;204;139054;-55
2024/01/16 08:39:43;;;;;;;11.20;6.50;;;;;;;1.89;71.16;97876.04;231740;198;137207;-57
2024/01/16 08:44:46;;;;;;;9.90;6.40;;;;;;;1.88;71.43;97894.59;231696;198;153283;-56
2024/01/16 08:49:49;;;;;;;11.50;6.30;;;;;;;1.98;71.58;97900.96;231692;200;138563;-57
2024/01/16 08:54:53;;;;;;;8.70;6.00;;;;;;;2.20;71.42;97900.30;231717;198;138263;-57
2024/01/16 08:59:56;;;;;;;11.30;6.50;;;;;;;2.41;70.55;97913.34;231765;198;153146;-55
2024/01/16 09:04:59;;;;;;;7.70;5.30;;;;;;;2.44;70.06;97916.16;231809;198;137522;-58
2024/01/16 09:10:03;;;;;;;11.40;5.50;;;;;;;2.55;69.75;97925.05;231792;199;137888;-59
2024/01/16 09:15:07;;;;;;;10.00;5.20;;;;;;;2.67;69.26;97927.45;231736;206;154260;-57
2024/01/16 09:20:12;;;;;;;8.70;4.50;;;;;;;2.73;68.53;97922.33;231688;198;139248;-57
2024/01/16 09:25:16;;;;;;;13.50;4.50;;;;;;;2.80;67.82;97919.35;231714;199;137543;-57
2024/01/16 09:30:21;;;;;;;6.20;4.20;;;;;;;2.85;67.24;97919.80;231435;199;153811;-59
2024/01/16 09:35:24;;;;;;;;;;;;;;;3.01;66.95;97917.59;231593;198;138618;-59
2024/01/16 09:40:28;;;;;;;8.90;5.40;;;;;;;3.22;65.70;97910.40;231763;206;137329;-59
2024/01/16 09:45:32;;;;;;;9.60;4.50;;;;;;;3.32;64.39;97917.77;231597;203;153074;-59
2024/01/16 09:50:35;;;;;;;9.20;4.40;;;;;;;3.52;63.94;97915.54;231603;199;137955;-58
2024/01/16 09:55:38;;;;;;;8.40;4.70;;;;;;;3.74;62.99;97915.25;231669;206;137807;-59
2024/01/16 10:00:43;;;;;;;10.30;4.10;;;;;;;3.98;62.12;97914.31;231561;206;153688;-59
2024/01/16 10:05:49;;;;;;;8.40;3.90;;;;;;;3.98;60.52;97931.20;231625;198;137475;-59
2024/01/16 10:10:52;;;;;;;7.20;3.70;;;;;;;3.65;60.57;97930.84;231763;200;137726;-59
2024/01/16 10:15:55;;;;;;;7.00;3.10;;;;;;;3.39;61.85;97941.30;231664;198;153916;-58
2024/01/16 10:20:59;;;;;;;4.70;2.60;;;;;;;3.12;63.58;97946.30;231604;200;137805;-58
2024/01/16 10:26:10;;;;;;;6.80;3.00;;;;;;;2.82;64.64;97961.09;231649;200;138120;-59
2024/01/16 10:31:16;;;;;;;6.80;3.50;;;;;;;2.56;65.69;97965.81;231556;198;153405;-57
2024/01/16 10:36:20;;;;;;;6.90;3.80;;;;;;;2.51;66.17;97971.30;231621;206;138095;-59
2024/01/16 10:41:27;;;;;;;7.50;4.30;;;;;;;2.44;66.54;97973.19;231696;198;138067;-58
2024/01/16 10:46:31;;;;;;;8.70;4.20;;;;;;;2.48;66.97;97978.45;231671;199;153272;-59
2024/01/16 10:51:35;;;;;;;7.10;3.70;;;;;;;2.55;66.90;97979.53;231597;199;248831;-59
2024/01/16 10:56:44;;;;;;;8.20;4.10;;;;;;;2.74;66.52;97974.23;231603;205;138314;-57
2024/01/16 11:01:51;;;;;;;12.90;6.70;;;;;;;2.98;66.25;97980.98;231544;199;154039;-58
2024/01/16 11:06:56;;;;;;;8.80;4.70;;;;;;;3.11;65.71;97984.57;231620;199;138445;-58
2024/01/16 11:11:59;;;;;;;8.40;4.40;;;;;;;3.07;66.45;97984.94;231593;206;137307;-58
2024/01/16 11:17:03;;;;;;;11.80;4.30;;;;;;;3.02;67.20;97986.94;231906;198;153958;-59
2024/01/16 11:22:07;;;;;;;9.40;4.30;;;;;;;3.04;67.62;97985.77;231690;198;140588;-59
2024/01/16 11:27:22;;;;;;;11.00;4.80;;;;;;;3.07;67.40;97991.04;231629;199;137500;-57
2024/01/16 11:32:37;;;;;;;9.40;4.80;;;;;;;3.17;67.04;97989.33;231687;203;153695;-59
2024/01/16 11:37:43;;;;;;;12.90;4.40;;;;;;;3.28;66.49;97992.83;231729;206;138260;-59
2024/01/16 11:42:50;;;;;;;10.30;4.70;;;;;;;3.37;66.16;97992.38;231738;204;138080;-58
2024/01/16 11:48:15;;;;;;;8.60;4.20;;;;;;;3.48;65.53;97995.85;231569;199;153056;-59
2024/01/16 11:53:36;;;;;;;9.10;3.70;;;;;;;3.49;65.15;98003.33;231824;199;137133;-59
2024/01/16 11:59:01;;;;;;;6.60;3.90;;;;;;;3.39;64.50;98006.81;231866;198;137668;-58
2024/01/16 12:04:09;;;;;;;7.20;3.80;;;;;;;3.26;65.11;98006.58;231707;198;153143;-59
2024/01/16 12:09:17;;;;;;;8.40;4.10;;;;;;;3.24;65.23;98008.12;231478;203;139216;-58
2024/01/16 12:14:20;;;;;;;6.50;4.20;;;;;;;3.41;65.36;98005.18;231683;199;140489;-59
2024/01/16 12:19:24;;;;;;;8.10;3.50;;;;;;;3.69;64.59;98005.16;231672;199;153362;-58
2024/01/16 12:24:27;;;;;;;7.10;3.60;;;;;;;3.99;63.82;98007.48;231130;198;138922;-58
2024/01/16 12:29:31;;;;;;;7.40;3.90;;;;;;;4.20;61.49;98012.31;231658;205;137806;-58
2024/01/16 12:34:35;;;;;;;7.90;3.50;;;;;;;3.99;59.90;98011.48;231672;199;155360;-58
2024/01/16 12:39:39;;;;;;;8.00;3.90;;;;;;;3.86;60.15;98010.96;231605;206;138939;-59
2024/01/16 12:44:42;;;;;;;9.60;3.90;;;;;;;3.73;59.81;98017.73;231610;203;137550;-59
2024/01/16 12:49:45;;;;;;;6.20;3.60;;;;;;;3.61;59.91;98028.52;231613;198;153718;-58
2024/01/16 12:54:59;;;;;;;8.00;4.30;;;;;;;3.45;60.30;98027.41;231595;199;137550;-58
2024/01/16 13:00:21;;;;;;;7.50;4.30;;;;;;;3.36;60.79;98039.08;231618;206;137648;-58
2024/01/16 13:05:25;;;;;;;6.90;3.60;;;;;;;3.28;61.80;98047.15;231801;198;153353;-58
2024/01/16 13:10:32;;;;;;;9.00;3.80;;;;;;;3.23;62.61;98048.12;231533;199;137390;-59
2024/01/16 13:15:37;;;;;;;6.90;3.50;;;;;;;3.30;63.07;98052.70;231636;203;137571;-57
2024/01/16 13:20:40;;;;;;;5.40;3.00;;;;;;;3.45;63.29;98057.41;231603;198;154364;-57
2024/01/16 13:25:45;;;;;;;5.50;3.10;;;;;;;3.61;63.26;98068.52;231571;203;138567;-59
2024/01/16 13:30:48;;;;;;;7.90;3.40;;;;;;;3.76;62.58;98078.48;231665;199;137689;-59
2024/01/16 13:35:54;;;;;;;6.30;3.30;;;;;;;3.92;62.43;98086.27;231631;205;154744;-58
2024/01/16 13:40:57;;;;;;;5.90;3.00;;;;;;;3.87;61.49;98085.68;231664;200;140446;-59
2024/01/16 13:46:01;;;;;;;5.80;3.00;;;;;;;3.77;61.55;98097.36;231619;203;138346;-58
2024/01/16 13:51:04;;;;;;;8.10;3.90;;;;;;;3.70;61.88;98110.02;231654;202;153861;-58
2024/01/16 13:56:08;;;;;;;10.30;4.80;;;;;;;3.53;62.33;98118.19;231604;204;138656;-59
2024/01/16 14:01:11;;;;;;;9.80;5.30;;;;;;;3.42;62.70;98134.00;231639;199;137737;-58
2024/01/16 14:06:15;;;;;;;8.90;4.70;;;;;;;3.27;62.93;98143.60;231608;203;153226;-57
2024/01/16 14:11:34;;;;;;;5.90;2.90;;;;;;;3.24;62.68;98138.66;231611;199;137854;-59
2024/01/16 14:16:37;;;;;;;6.60;2.80;;;;;;;3.27;61.46;98147.83;231604;198;138617;-58
2024/01/16 14:21:56;;;;;;;5.10;3.00;;;;;;;3.20;60.88;98147.48;231661;202;154061;-58
2024/01/16 14:26:59;;;;;;;12.00;6.80;;;;;;;3.11;60.84;98149.42;231654;203;138141;-61
2024/01/16 14:32:04;;;;;;;7.50;3.90;;;;;;;2.98;61.21;98152.66;231735;198;137724;-58
2024/01/16 14:37:07;;;;;;;6.90;3.70;;;;;;;3.02;61.54;98157.77;231542;206;153431;-58
2024/01/16 14:42:10;;;;;;;7.30;3.80;;;;;;;2.97;61.47;98165.00;231689;203;137591;-58
2024/01/16 14:47:15;;;;;;;7.90;4.50;;;;;;;2.91;61.82;98172.61;231782;199;137731;-58
2024/01/16 14:52:18;;;;;;;14.30;5.10;;;;;;;2.88;61.73;98178.37;231636;206;153847;-61
2024/01/16 14:57:21;;;;;;;13.30;7.50;;;;;;;2.86;62.46;98182.67;231585;199;142063;-59
2024/01/16 15:02:24;;;;;;;10.60;5.90;;;;;;;2.89;62.00;98184.98;231610;198;139569;-58
2024/01/16 15:07:29;;;;;;;10.90;5.30;;;;;;;2.77;62.02;98187.77;231728;199;153392;-59
2024/01/16 15:12:32;;;;;;;10.60;5.60;;;;;;;2.66;62.08;98197.02;231647;198;137373;-57
2024/01/16 15:17:35;;;;;;;13.70;6.00;;;;;;;2.54;62.23;98198.56;231763;198;139073;-56
2024/01/16 15:22:44;;;;;;;10.10;5.90;;;;;;;2.37;62.48;98209.29;231769;203;154204;-57
2024/01/16 15:27:53;;;;;;;12.10;6.50;;;;;;;2.27;62.64;98213.59;231655;198;137845;-57
2024/01/16 15:32:57;;;;;;;11.40;6.40;;;;;;;2.20;62.86;98217.69;231667;199;139068;-57
2024/01/16 15:38:02;;;;;;;12.70;6.10;;;;;;;2.19;62.85;98225.98;231584;199;154085;-58
2024/01/16 15:43:06;;;;;;;9.40;5.60;;;;;;;2.16;62.76;98230.50;231603;198;137729;-57
2024/01/16 15:48:09;;;;;;;10.50;5.80;;;;;;;2.13;62.63;98232.87;231623;206;137386;-57
2024/01/16 15:53:15;;;;;;;8.90;5.30;;;;;;;2.08;62.96;98237.27;231619;199;153205;-57
2024/01/16 15:58:19;;;;;;;10.80;5.20;;;;;;;2.05;63.29;98246.84;231634;206;137414;-58
2024/01/16 16:03:22;;;;;;;14.90;9.00;;;;;;;2.10;64.27;98254.85;231644;199;138972;-58
2024/01/16 16:08:26;;;;;;;11.10;6.00;;;;;;;2.20;63.56;98262.85;231678;200;153771;-58
2024/01/16 16:13:31;;;;;;;9.20;5.30;;;;;;;2.14;63.42;98271.33;231629;199;137660;-56
2024/01/16 16:18:36;;;;;;;8.30;5.50;;;;;;;2.05;63.76;98279.03;231367;203;138675;-55
2024/01/16 16:23:40;;;;;;;9.80;5.40;;;;;;;1.93;64.04;98290.17;231650;198;154344;-55
2024/01/16 16:28:43;;;;;;;11.00;5.50;;;;;;;1.88;64.45;98312.23;231751;199;137468;-56
2024/01/16 16:33:47;;;;;;;9.40;5.50;;;;;;;1.89;64.66;98320.77;231700;199;139453;-57
2024/01/16 16:38:50;;;;;;;10.80;5.70;;;;;;;1.89;64.88;98326.02;231621;204;154257;-58
2024/01/16 16:43:54;;;;;;;10.40;5.70;;;;;;;1.88;65.06;98331.30;231620;199;138472;-59
2024/01/16 16:48:57;;;;;;;11.90;6.60;;;;;;;1.97;65.12;98326.94;231586;206;137680;-57
2024/01/16 16:54:00;;;;;;;11.00;6.20;;;;;;;2.00;64.77;98330.11;231697;203;153294;-58
2024/01/16 16:59:04;;;;;;;10.80;5.70;;;;;;;2.05;64.93;98331.86;231757;198;138352;-57
2024/01/16 17:04:07;;;;;;;9.60;5.30;;;;;;;2.06;64.73;98342.84;231614;199;137458;-56
2024/01/16 17:09:11;;;;;;;11.00;6.20;;;;;;;2.09;64.74;98344.48;231636;206;153900;-57
2024/01/16 17:14:15;;;;;;;9.30;5.60;;;;;;;2.08;64.67;98346.61;231635;199;139337;-57
2024/01/16 17:19:19;;;;;;;9.70;6.00;;;;;;;2.01;64.76;98345.15;231591;199;138300;-55
2024/01/16 17:24:22;;;;;;;9.60;5.80;;;;;;;1.92;64.98;98341.63;231582;203;152935;-55
2024/01/16 17:29:26;;;;;;;10.70;6.40;;;;;;;1.87;65.00;98345.49;231763;203;138458;-57
2024/01/16 17:34:29;;;;;;;11.70;5.90;;;;;;;1.85;65.09;98353.62;231734;205;141555;-57
2024/01/16 17:39:32;;;;;;;12.60;6.50;;;;;;;1.80;65.13;98358.00;231671;198;154180;-56
2024/01/16 17:44:48;;;;;;;11.90;6.60;;;;;;;1.77;65.20;98366.00;231680;199;138661;-55
2024/01/16 17:49:52;;;;;;;10.70;6.20;;;;;;;1.80;65.17;98375.86;231689;198;137880;-57
2024/01/16 17:54:55;;;;;;;12.60;6.90;;;;;;;1.85;65.13;98377.22;231659;198;153871;-56
2024/01/16 17:59:59;;;;;;;12.80;7.30;;;;;;;1.87;64.99;98379.79;231627;203;137849;-57
2024/01/16 18:05:09;;;;;;;10.20;6.10;;;;;;;1.84;64.99;98379.20;231749;198;142479;-57
2024/01/16 18:10:13;;;;;;;10.80;7.00;;;;;;;1.83;64.96;98384.11;231685;198;152930;-59
2024/01/16 18:15:17;;;;;;;12.60;7.00;;;;;;;1.79;64.84;98390.91;231684;199;137481;-58
2024/01/16 18:20:21;;;;;;;14.80;7.20;;;;;;;1.80;64.90;98395.45;231683;206;138449;-60
2024/01/16 18:25:25;;;;;;;12.60;7.40;;;;;;;1.77;64.92;98398.88;231606;198;153900;-56
2024/01/16 18:30:28;;;;;;;14.60;7.90;;;;;;;1.68;64.87;98406.38;231675;197;139263;-56
2024/01/16 18:35:32;;;;;;;14.40;7.90;;;;;;;1.63;64.98;98405.30;231634;202;137679;-55
2024/01/16 18:40:35;;;;;;;17.80;8.00;;;;;;;1.56;64.94;98413.45;231677;198;153717;-56
2024/01/16 18:45:39;;;;;;;12.50;7.80;;;;;;;1.47;65.09;98413.76;231551;206;138159;-55
2024/01/16 18:50:54;;;;;;;13.30;7.70;;;;;;;1.42;65.46;98406.27;231333;202;139379;-58
2024/01/16 18:56:01;;;;;;;11.90;7.50;;;;;;;1.38;65.51;98410.23;231277;202;155788;-56
2024/01/16 19:01:05;;;;;;;15.60;9.20;;;;;;;1.34;65.66;98414.92;231562;205;138709;-54
2024/01/16 19:06:12;;;;;;;15.60;8.60;;;;;;;1.31;65.91;98427.81;231538;198;138127;-55
2024/01/16 19:11:16;;;;;;;17.00;8.10;;;;;;;1.30;65.95;98436.90;231617;202;153579;-56
2024/01/16 19:16:19;;;;;;;16.40;9.20;;;;;;;1.33;65.77;98442.04;231554;198;141977;-56
2024/01/16 19:21:22;;;;;;;15.40;8.20;;;;;;;1.35;65.63;98451.05;231612;198;137695;-55
2024/01/16 19:26:26;;;;;;;18.10;9.30;;;;;;;1.32;65.71;98456.05;231550;199;153865;-55
2024/01/16 19:31:32;;;;;;;20.60;10.80;;;;;;;1.37;66.00;98451.16;231322;198;141060;-53
2024/01/16 19:36:35;;;;;;;17.50;8.70;;;;;;;1.45;65.44;98456.13;231604;199;137788;-56
2024/01/16 19:41:38;;;;;;;15.00;8.80;;;;;;;1.46;65.11;98454.00;231618;203;153988;-55
2024/01/16 19:46:42;;;;;;;15.80;9.60;;;;;;;1.49;64.97;98452.31;231644;199;138921;-55
2024/01/16 19:51:46;;;;;;;17.20;9.50;;;;;;;1.49;64.87;98445.66;231597;198;138265;-56
2024/01/16 19:56:49;;;;;;;16.80;9.70;;;;;;;1.50;64.77;98450.71;231481;206;153644;-56
2024/01/16 20:01:52;;;;;;;16.80;10.00;;;;;;;1.48;64.67;98453.58;231566;203;141996;-56
2024/01/16 20:06:56;;;;;;;19.80;11.30;;;;;;;1.46;64.63;98460.30;231557;206;137517;-55
2024/01/16 20:12:01;;;;;;;20.50;11.90;;;;;;;1.38;64.60;98462.29;231598;200;153375;-56
2024/01/16 20:17:05;;;;;;;22.30;11.90;;;;;;;1.30;64.76;98465.54;231727;198;141064;-54
2024/01/16 20:22:08;;;;;;;19.10;11.70;;;;;;;1.25;64.53;98463.98;231529;199;138488;-56
2024/01/16 20:27:11;;;;;;;27.80;15.30;;;;;;;1.19;65.56;98458.59;231588;202;154185;-52
2024/01/16 20:32:14;;;;;;;25.40;13.20;;;;;;;1.15;63.84;98457.86;231612;198;138166;-56
2024/01/16 20:37:17;;;;;;;25.10;12.90;;;;;;;0.90;63.18;98461.98;231601;206;137485;-52
2024/01/16 20:42:21;;;;;;;26.40;13.30;;;;;;;0.70;63.29;98469.62;231676;198;153201;-54
2024/01/16 20:47:24;;;;;;;25.10;14.20;;;;;;;0.56;63.28;98460.81;231663;198;137772;-55
2024/01/16 20:52:27;;;;;;;62.40;39.30;;;;;;;0.41;63.19;98465.80;231575;199;140167;-55
2024/01/16 20:57:31;;;;;;;32.20;18.70;;;;;;;0.48;64.19;98467.85;231587;202;153014;-55
2024/01/16 21:02:35;;;;;;;24.40;14.60;;;;;;;0.57;64.16;98466.34;231636;206;137825;-55
2024/01/16 21:07:38;;;;;;;30.20;16.50;;;;;;;0.47;63.68;98467.68;231663;205;138530;-54
2024/01/16 21:12:42;;;;;;;27.20;15.70;;;;;;;0.37;63.67;98466.44;231611;198;154407;-55
2024/01/16 21:17:45;;;;;;;28.00;15.80;;;;;;;0.27;63.86;98469.52;231619;198;138163;-55
2024/01/16 21:22:48;;;;;;;30.80;16.90;;;;;;;0.16;64.07;98466.01;231782;198;137261;-52
2024/01/16 21:27:52;;;;;;;30.50;17.20;;;;;;;0.07;64.14;98458.09;231523;206;153499;-55
2024/01/16 21:32:56;;;;;;;39.50;18.50;;;;;;;-0.02;64.34;98458.15;231657;198;138036;-54
2024/01/16 21:38:00;;;;;;;27.40;17.40;;;;;;;-0.08;64.46;98459.91;231600;198;139089;-55
2024/01/16 21:43:03;;;;;;;187.60;111.70;;;;;;;-0.11;65.29;98463.66;231553;202;154067;-51
2024/01/16 21:48:06;;;;;;;44.20;24.10;;;;;;;0.17;66.54;98465.63;231486;198;156302;-51
2024/01/16 21:53:10;;;;;;;36.10;21.60;;;;;;;0.17;64.34;98460.56;231639;198;138369;-55
2024/01/16 21:58:14;;;;;;;35.00;19.30;;;;;;;-0.01;64.13;98465.11;231591;199;153257;-57
2024/01/16 22:03:17;;;;;;;37.30;19.60;;;;;;;-0.13;64.34;98465.98;231660;206;138341;-54
2024/01/16 22:08:21;;;;;;;30.10;17.40;;;;;;;-0.21;64.88;98468.48;231388;203;139006;-57
2024/01/16 22:13:24;;;;;;;31.30;17.40;;;;;;;-0.23;64.79;98468.70;231439;199;152899;-57
2024/01/16 22:18:28;;;;;;;34.40;18.40;;;;;;;-0.29;64.90;98464.33;231611;199;138451;-57
2024/01/16 22:23:31;;;;;;;44.00;21.70;;;;;;;-0.34;64.61;98455.58;231765;198;140295;-56
2024/01/16 22:28:37;;;;;;;49.10;24.70;;;;;;;-0.40;64.46;98459.24;231715;198;153138;-56
2024/01/16 22:33:41;;;;;;;45.70;25.50;;;;;;;-0.48;64.15;98450.92;231505;203;137713;-56
2024/01/16 22:38:47;;;;;;;53.30;26.00;;;;;;;-0.60;64.10;98447.56;231657;199;137703;-55
2024/01/16 22:43:51;;;;;;;56.80;28.80;;;;;;;-0.66;64.24;98445.31;231670;206;153758;-56
2024/01/16 22:48:54;;;;;;;48.20;25.20;;;;;;;-0.74;64.30;98454.23;231705;198;137917;-55
2024/01/16 22:53:57;;;;;;;53.90;27.90;;;;;;;-0.80;64.11;98453.15;231589;205;138168;-59
2024/01/16 22:59:01;;;;;;;60.40;29.50;;;;;;;-0.88;64.27;98451.96;231744;198;155461;-52
2024/01/16 23:04:06;;;;;;;66.80;32.00;;;;;;;-0.94;64.07;98449.15;231446;198;138936;-53
2024/01/16 23:09:09;;;;;;;64.00;30.30;;;;;;;-1.05;63.86;98442.81;231697;198;137620;-55
2024/01/16 23:14:13;;;;;;;55.70;30.40;;;;;;;-1.15;64.27;98431.41;231413;198;153553;-55
2024/01/16 23:19:16;;;;;;;57.30;27.20;;;;;;;-1.25;63.84;98433.74;231731;205;139754;-56
2024/01/16 23:24:19;;;;;;;56.90;28.40;;;;;;;-1.36;64.22;98444.27;231817;202;139187;-56
2024/01/16 23:29:22;;;;;;;53.50;27.40;;;;;;;-1.46;64.06;98438.77;231926;205;153559;-55
2024/01/16 23:34:26;;;;;;;54.00;26.90;;;;;;;-1.56;64.34;98432.73;231669;206;138415;-56
2024/01/16 23:39:29;;;;;;;51.00;27.10;;;;;;;-1.61;64.42;98430.09;231139;205;138669;-55
2024/01/16 23:44:34;;;;;;;48.20;26.60;;;;;;;-1.70;63.99;98426.44;231671;199;153417;-56